Wetterdaten: Woche 08.09.08 - 14.09.08 (KW37)
Datum Zeit Temperatur Luftfeuchte Luftdruck Niederschlag Wind Richtung Sonnenschein Solar Taupunkt Windchill Windben
08.09.2008 00:00 12.2 C 97 % 1016.8 hPa 0.0 l/m 2.0 km/h (1 Bft) O-SO 0.00 h 0 W/m 11.7 C 12.2 C 3.0 km/h (1 Bft)
08.09.2008 01:00 11.7 C 98 % 1016.9 hPa 0.0 l/m 1.0 km/h (0 Bft) O-SO 0.00 h 0 W/m 11.4 C 11.7 C 2.2 km/h (1 Bft)
08.09.2008 02:00 11.9 C 99 % 1016.8 hPa 0.0 l/m 1.3 km/h (1 Bft) O-SO 0.00 h 0 W/m 11.7 C 11.9 C 2.7 km/h (1 Bft)
08.09.2008 03:00 12.0 C 100 % 1016.8 hPa 0.0 l/m 0.3 km/h (0 Bft) O-SO 0.00 h 0 W/m 12.0 C 12.0 C 1.0 km/h (0 Bft)
08.09.2008 04:00 12.1 C 100 % 1016.8 hPa 0.0 l/m 0.1 km/h (0 Bft) O-SO 0.00 h 0 W/m 12.1 C 12.1 C 0.5 km/h (0 Bft)
08.09.2008 05:00 12.2 C 100 % 1017.1 hPa 0.0 l/m 0.0 km/h (0 Bft) O-SO 0.00 h 0 W/m 12.2 C 12.2 C 0.1 km/h (0 Bft)
08.09.2008 06:00 12.0 C 100 % 1017.3 hPa 0.0 l/m 0.1 km/h (0 Bft) W 0.00 h 0 W/m 12.0 C 12.0 C 0.7 km/h (0 Bft)
08.09.2008 07:00 11.8 C 100 % 1018.0 hPa 0.0 l/m 1.0 km/h (0 Bft) S-SW 0.00 h 14 W/m 11.8 C 11.8 C 2.8 km/h (1 Bft)
08.09.2008 08:00 12.0 C 100 % 1018.7 hPa 0.0 l/m 0.5 km/h (0 Bft) S-SO 0.00 h 60 W/m 12.0 C 12.0 C 1.9 km/h (1 Bft)
08.09.2008 09:00 13.0 C 95 % 1018.9 hPa 0.0 l/m 0.5 km/h (0 Bft) W 0.00 h 143 W/m 12.2 C 13.0 C 1.9 km/h (1 Bft)
08.09.2008 10:00 14.0 C 89 % 1019.1 hPa 0.0 l/m 0.9 km/h (0 Bft) O-SO 0.67 h 412 W/m 12.2 C 14.0 C 2.6 km/h (1 Bft)
08.09.2008 11:00 17.5 C 76 % 1018.9 hPa 0.0 l/m 0.8 km/h (0 Bft) W-NW 1.00 h 613 W/m 13.2 C 17.5 C 2.6 km/h (1 Bft)
08.09.2008 12:00 18.9 C 67 % 1018.4 hPa 0.0 l/m 2.4 km/h (1 Bft) O-SO 1.00 h 696 W/m 12.5 C 18.9 C 4.9 km/h (1 Bft)
08.09.2008 13:00 20.3 C 59 % 1018.1 hPa 0.0 l/m 3.2 km/h (1 Bft) W 1.00 h 686 W/m 12.0 C 20.3 C 6.2 km/h (2 Bft)
08.09.2008 14:00 20.5 C 58 % 1017.7 hPa 0.0 l/m 1.7 km/h (1 Bft) W-NW 0.77 h 574 W/m 11.8 C 20.5 C 3.8 km/h (1 Bft)
08.09.2008 15:00 21.6 C 53 % 1017.4 hPa 0.0 l/m 2.7 km/h (1 Bft) W 1.00 h 620 W/m 11.7 C 21.6 C 4.7 km/h (1 Bft)
08.09.2008 16:00 22.2 C 50 % 1017.0 hPa 0.0 l/m 1.8 km/h (1 Bft) W 1.00 h 491 W/m 11.3 C 22.2 C 3.8 km/h (1 Bft)
08.09.2008 17:00 21.3 C 50 % 1017.0 hPa 0.0 l/m 2.3 km/h (1 Bft) O-SO 0.95 h 325 W/m 10.6 C 21.3 C 4.4 km/h (1 Bft)
08.09.2008 18:00 20.8 C 52 % 1017.1 hPa 0.0 l/m 1.0 km/h (0 Bft) SW 0.52 h 110 W/m 10.7 C 20.8 C 2.3 km/h (1 Bft)
08.09.2008 19:00 19.0 C 67 % 1017.1 hPa 0.0 l/m 1.5 km/h (1 Bft) O-SO 0.32 h 35 W/m 12.6 C 19.0 C 2.9 km/h (1 Bft)
08.09.2008 20:00 15.8 C 82 % 1017.6 hPa 0.0 l/m 2.0 km/h (1 Bft) O-SO 0.00 h 0 W/m 12.7 C 15.8 C 3.1 km/h (1 Bft)
08.09.2008 21:00 14.3 C 87 % 1018.3 hPa 0.0 l/m 1.0 km/h (0 Bft) O-SO 0.00 h 0 W/m 12.1 C 14.3 C 2.0 km/h (1 Bft)
08.09.2008 22:00 13.2 C 91 % 1018.4 hPa 0.0 l/m 0.3 km/h (0 Bft) O-SO 0.00 h 0 W/m 11.7 C 13.2 C 0.9 km/h (0 Bft)
08.09.2008 23:00 12.4 C 93 % 1018.4 hPa 0.0 l/m 0.4 km/h (0 Bft) O-SO 0.00 h 0 W/m 11.4 C 12.4 C 1.0 km/h (0 Bft)
09.09.2008 00:00 11.8 C 95 % 1018.7 hPa 0.0 l/m 0.5 km/h (0 Bft) O-SO 0.00 h 0 W/m 11.0 C 11.8 C 1.0 km/h (0 Bft)
09.09.2008 01:00 11.3 C 96 % 1018.7 hPa 0.0 l/m 0.1 km/h (0 Bft) O-SO 0.00 h 0 W/m 10.7 C 11.3 C 0.7 km/h (0 Bft)
09.09.2008 02:00 10.6 C 97 % 1018.7 hPa 0.0 l/m 0.6 km/h (0 Bft) O-SO 0.00 h 0 W/m 10.1 C 10.6 C 1.5 km/h (1 Bft)
09.09.2008 03:00 10.2 C 98 % 1018.8 hPa 0.0 l/m 0.4 km/h (0 Bft) O-SO 0.00 h 0 W/m 9.9 C 10.2 C 1.2 km/h (1 Bft)
09.09.2008 04:00 9.6 C 98 % 1018.8 hPa 0.2 l/m 0.5 km/h (0 Bft) O-SO 0.00 h 0 W/m 9.3 C 9.6 C 1.4 km/h (1 Bft)
09.09.2008 05:00 9.4 C 99 % 1018.9 hPa 0.0 l/m 0.5 km/h (0 Bft) O-SO 0.00 h 0 W/m 9.1 C 9.4 C 1.3 km/h (1 Bft)
09.09.2008 06:00 9.6 C 99 % 1018.9 hPa 0.0 l/m 0.1 km/h (0 Bft) O-SO 0.00 h 0 W/m 9.5 C 9.6 C 0.8 km/h (0 Bft)
09.09.2008 07:00 9.7 C 100 % 1019.5 hPa 0.0 l/m 0.1 km/h (0 Bft) O-SO 0.00 h 22 W/m 9.7 C 9.7 C 0.9 km/h (0 Bft)
09.09.2008 08:00 10.0 C 100 % 1020.0 hPa 0.0 l/m 0.7 km/h (0 Bft) O-SO 0.00 h 75 W/m 10.0 C 10.0 C 1.6 km/h (1 Bft)
09.09.2008 09:00 10.9 C 100 % 1019.8 hPa 0.0 l/m 0.2 km/h (0 Bft) O-SO 0.00 h 152 W/m 10.9 C 10.9 C 1.3 km/h (1 Bft)
09.09.2008 10:00 12.3 C 100 % 1019.6 hPa 0.0 l/m 0.4 km/h (0 Bft) O-SO 0.27 h 297 W/m 12.3 C 12.3 C 1.9 km/h (1 Bft)
09.09.2008 11:00 16.2 C 86 % 1018.9 hPa 0.0 l/m 1.0 km/h (0 Bft) S 0.97 h 577 W/m 13.7 C 16.2 C 2.6 km/h (1 Bft)
09.09.2008 12:00 19.1 C 72 % 1018.0 hPa 0.0 l/m 1.7 km/h (1 Bft) O-SO 1.00 h 681 W/m 14.0 C 19.1 C 4.1 km/h (1 Bft)
09.09.2008 13:00 21.4 C 65 % 1017.5 hPa 0.0 l/m 1.9 km/h (1 Bft) S-SO 1.00 h 695 W/m 14.5 C 21.4 C 4.3 km/h (1 Bft)
09.09.2008 14:00 23.3 C 58 % 1017.1 hPa 0.0 l/m 1.8 km/h (1 Bft) S-SO 1.00 h 665 W/m 14.5 C 23.3 C 4.0 km/h (1 Bft)
09.09.2008 15:00 24.2 C 56 % 1016.7 hPa 0.0 l/m 1.1 km/h (0 Bft) W 1.00 h 575 W/m 14.9 C 24.2 C 2.9 km/h (1 Bft)
09.09.2008 16:00 24.6 C 53 % 1016.2 hPa 0.0 l/m 1.6 km/h (1 Bft) O-SO 1.00 h 449 W/m 14.5 C 24.6 C 3.6 km/h (1 Bft)
09.09.2008 17:00 24.8 C 53 % 1016.1 hPa 0.0 l/m 1.4 km/h (1 Bft) O-SO 0.73 h 256 W/m 14.5 C 24.8 C 2.9 km/h (1 Bft)
09.09.2008 18:00 23.4 C 65 % 1016.2 hPa 0.0 l/m 0.1 km/h (0 Bft) SO 0.22 h 89 W/m 16.3 C 23.4 C 0.5 km/h (0 Bft)
09.09.2008 19:00 20.9 C 76 % 1016.3 hPa 0.0 l/m 1.2 km/h (1 Bft) O-SO 0.00 h 14 W/m 16.5 C 20.9 C 2.1 km/h (1 Bft)
09.09.2008 20:00 18.9 C 84 % 1016.7 hPa 0.0 l/m 2.1 km/h (1 Bft) O-SO 0.00 h 0 W/m 16.2 C 18.9 C 3.3 km/h (1 Bft)
09.09.2008 21:00 18.1 C 88 % 1017.0 hPa 0.0 l/m 1.1 km/h (0 Bft) SO 0.00 h 0 W/m 16.0 C 18.1 C 2.3 km/h (1 Bft)
09.09.2008 22:00 17.6 C 90 % 1017.0 hPa 0.0 l/m 0.6 km/h (0 Bft) O-SO 0.00 h 0 W/m 15.8 C 17.6 C 1.2 km/h (1 Bft)
09.09.2008 23:00 17.0 C 93 % 1016.9 hPa 0.0 l/m 0.9 km/h (0 Bft) O-SO 0.00 h 0 W/m 15.8 C 17.0 C 1.9 km/h (1 Bft)
10.09.2008 00:00 16.3 C 96 % 1017.2 hPa 0.0 l/m 0.3 km/h (0 Bft) O-SO 0.00 h 0 W/m 15.6 C 16.3 C 0.7 km/h (0 Bft)
10.09.2008 01:00 15.9 C 97 % 1017.3 hPa 0.0 l/m 0.1 km/h (0 Bft) O-SO 0.00 h 0 W/m 15.4 C 15.9 C 0.5 km/h (0 Bft)
10.09.2008 02:00 15.6 C 97 % 1017.4 hPa 0.0 l/m 0.0 km/h (0 Bft) N 0.00 h 0 W/m 15.1 C 15.6 C 0.1 km/h (0 Bft)
10.09.2008 03:00 14.8 C 98 % 1017.6 hPa 0.0 l/m 0.0 km/h (0 Bft) N 0.00 h 0 W/m 14.5 C 14.8 C 0.0 km/h (0 Bft)
10.09.2008 04:00 14.4 C 98 % 1017.7 hPa 0.0 l/m 0.1 km/h (0 Bft) O-SO 0.00 h 0 W/m 14.1 C 14.4 C 0.2 km/h (0 Bft)
10.09.2008 05:00 14.0 C 99 % 1017.9 hPa 0.0 l/m 0.1 km/h (0 Bft) O-SO 0.00 h 0 W/m 13.8 C 14.0 C 0.2 km/h (0 Bft)
10.09.2008 06:00 14.2 C 100 % 1018.3 hPa 0.0 l/m 0.0 km/h (0 Bft) O-SO 0.00 h 0 W/m 14.1 C 14.2 C 0.1 km/h (0 Bft)
10.09.2008 07:00 14.4 C 100 % 1018.6 hPa 0.0 l/m 0.1 km/h (0 Bft) O-SO 0.00 h 19 W/m 14.3 C 14.4 C 0.5 km/h (0 Bft)
10.09.2008 08:00 15.1 C 99 % 1018.5 hPa 0.2 l/m 0.1 km/h (0 Bft) O-SO 0.00 h 61 W/m 15.0 C 15.1 C 0.4 km/h (0 Bft)
10.09.2008 09:00 16.1 C 97 % 1018.3 hPa 0.0 l/m 0.2 km/h (0 Bft) O-SO 0.00 h 135 W/m 15.7 C 16.1 C 1.0 km/h (0 Bft)
10.09.2008 10:00 17.3 C 91 % 1018.1 hPa 0.0 l/m 0.5 km/h (0 Bft) O-SO 0.00 h 190 W/m 15.9 C 17.3 C 1.4 km/h (1 Bft)
10.09.2008 11:00 19.4 C 83 % 1017.9 hPa 0.0 l/m 0.9 km/h (0 Bft) W 0.57 h 434 W/m 16.4 C 19.4 C 2.5 km/h (1 Bft)
10.09.2008 12:00 21.2 C 75 % 1017.7 hPa 0.0 l/m 0.9 km/h (0 Bft) S-SO 0.22 h 343 W/m 16.6 C 21.2 C 3.0 km/h (1 Bft)
10.09.2008 13:00 21.6 C 73 % 1017.5 hPa 0.0 l/m 2.1 km/h (1 Bft) S-SO 0.25 h 317 W/m 16.5 C 21.6 C 4.8 km/h (1 Bft)
10.09.2008 14:00 23.6 C 66 % 1017.0 hPa 0.0 l/m 2.1 km/h (1 Bft) W-NW 0.80 h 541 W/m 16.8 C 23.6 C 4.6 km/h (1 Bft)
10.09.2008 15:00 24.0 C 65 % 1016.5 hPa 0.0 l/m 0.6 km/h (0 Bft) W-NW 0.63 h 437 W/m 17.0 C 24.0 C 2.1 km/h (1 Bft)
10.09.2008 16:00 24.0 C 65 % 1016.1 hPa 0.0 l/m 0.4 km/h (0 Bft) O-NO 0.10 h 229 W/m 17.0 C 24.0 C 1.4 km/h (1 Bft)
10.09.2008 17:00 23.8 C 67 % 1016.0 hPa 0.0 l/m 0.5 km/h (0 Bft) O-NO 0.38 h 202 W/m 17.4 C 23.8 C 1.5 km/h (1 Bft)
10.09.2008 18:00 23.7 C 67 % 1015.8 hPa 0.0 l/m 0.1 km/h (0 Bft) O-NO 0.08 h 84 W/m 17.1 C 23.7 C 0.8 km/h (0 Bft)
10.09.2008 19:00 21.8 C 80 % 1015.6 hPa 0.0 l/m 1.8 km/h (1 Bft) O-SO 0.07 h 28 W/m 18.1 C 21.8 C 3.3 km/h (1 Bft)
10.09.2008 20:00 20.1 C 84 % 1015.8 hPa 0.0 l/m 1.5 km/h (1 Bft) O 0.00 h 0 W/m 17.4 C 20.1 C 3.0 km/h (1 Bft)
10.09.2008 21:00 18.7 C 89 % 1016.2 hPa 0.0 l/m 0.7 km/h (0 Bft) SO 0.00 h 0 W/m 16.9 C 18.7 C 1.5 km/h (1 Bft)
10.09.2008 22:00 17.6 C 92 % 1016.2 hPa 0.0 l/m 0.1 km/h (0 Bft) SO 0.00 h 0 W/m 16.3 C 17.6 C 0.6 km/h (0 Bft)
10.09.2008 23:00 16.8 C 94 % 1015.8 hPa 0.0 l/m 0.7 km/h (0 Bft) SO 0.00 h 0 W/m 15.9 C 16.8 C 1.7 km/h (1 Bft)
11.09.2008 00:00 16.1 C 97 % 1015.4 hPa 0.0 l/m 0.0 km/h (0 Bft) N 0.00 h 0 W/m 15.5 C 16.1 C 0.1 km/h (0 Bft)
11.09.2008 01:00 15.5 C 97 % 1015.0 hPa 0.0 l/m 0.0 km/h (0 Bft) SO 0.00 h 0 W/m 15.1 C 15.5 C 0.1 km/h (0 Bft)
11.09.2008 02:00 15.1 C 98 % 1014.5 hPa 0.0 l/m 0.0 km/h (0 Bft) N 0.00 h 0 W/m 14.7 C 15.1 C 0.0 km/h (0 Bft)
11.09.2008 03:00 14.7 C 98 % 1014.0 hPa 0.0 l/m 0.0 km/h (0 Bft) N 0.00 h 0 W/m 14.4 C 14.7 C 0.0 km/h (0 Bft)
11.09.2008 04:00 14.2 C 99 % 1013.5 hPa 0.0 l/m 0.0 km/h (0 Bft) SO 0.00 h 0 W/m 14.1 C 14.2 C 0.4 km/h (0 Bft)
11.09.2008 05:00 14.1 C 100 % 1013.4 hPa 0.0 l/m 0.0 km/h (0 Bft) SO 0.00 h 0 W/m 14.0 C 14.1 C 0.3 km/h (0 Bft)
11.09.2008 06:00 13.9 C 100 % 1013.3 hPa 0.0 l/m 0.2 km/h (0 Bft) SO 0.00 h 0 W/m 13.9 C 13.9 C 1.0 km/h (0 Bft)
11.09.2008 07:00 14.3 C 100 % 1013.6 hPa 0.0 l/m 0.1 km/h (0 Bft) O 0.00 h 22 W/m 14.3 C 14.3 C 0.5 km/h (0 Bft)
11.09.2008 08:00 15.1 C 100 % 1013.5 hPa 0.0 l/m 0.4 km/h (0 Bft) O 0.18 h 119 W/m 15.1 C 15.1 C 1.2 km/h (1 Bft)
11.09.2008 09:00 17.0 C 96 % 1013.1 hPa 0.0 l/m 1.1 km/h (1 Bft) N-NW 0.77 h 255 W/m 16.4 C 17.0 C 2.9 km/h (1 Bft)
11.09.2008 10:00 19.5 C 83 % 1012.7 hPa 0.0 l/m 1.9 km/h (1 Bft) N 0.87 h 410 W/m 16.6 C 19.5 C 4.1 km/h (1 Bft)
11.09.2008 11:00 21.0 C 78 % 1012.2 hPa 0.0 l/m 1.2 km/h (1 Bft) SO 0.73 h 474 W/m 17.0 C 21.0 C 3.1 km/h (1 Bft)
11.09.2008 12:00 22.0 C 76 % 1011.7 hPa 0.0 l/m 1.3 km/h (1 Bft) N-NW 0.57 h 449 W/m 17.7 C 22.0 C 3.4 km/h (1 Bft)
11.09.2008 13:00 23.1 C 72 % 1011.4 hPa 0.0 l/m 2.0 km/h (1 Bft) W-NW 0.53 h 463 W/m 17.9 C 23.1 C 4.3 km/h (1 Bft)
11.09.2008 14:00 22.8 C 73 % 1011.4 hPa 0.0 l/m 2.5 km/h (1 Bft) S 0.00 h 169 W/m 17.8 C 22.8 C 6.0 km/h (2 Bft)
11.09.2008 15:00 20.7 C 87 % 1011.1 hPa 2.0 l/m 5.2 km/h (1 Bft) O-SO 0.20 h 182 W/m 18.5 C 20.7 C 8.4 km/h (2 Bft)
11.09.2008 16:00 22.2 C 85 % 1010.2 hPa 0.0 l/m 0.7 km/h (0 Bft) W-SW 0.73 h 344 W/m 19.6 C 22.2 C 2.1 km/h (1 Bft)
11.09.2008 17:00 23.3 C 79 % 1009.8 hPa 0.0 l/m 0.9 km/h (0 Bft) O-SO 0.88 h 302 W/m 19.4 C 23.3 C 2.7 km/h (1 Bft)
11.09.2008 18:00 22.7 C 78 % 1009.4 hPa 0.0 l/m 0.4 km/h (0 Bft) N 0.00 h 69 W/m 18.6 C 22.7 C 1.2 km/h (1 Bft)
11.09.2008 19:00 20.9 C 83 % 1009.1 hPa 0.0 l/m 2.2 km/h (1 Bft) O-SO 0.00 h 22 W/m 17.9 C 20.9 C 3.3 km/h (1 Bft)
11.09.2008 20:00 19.7 C 88 % 1008.7 hPa 0.0 l/m 0.5 km/h (0 Bft) O-SO 0.00 h 0 W/m 17.6 C 19.7 C 1.2 km/h (1 Bft)
11.09.2008 21:00 18.7 C 94 % 1008.6 hPa 0.0 l/m 0.3 km/h (0 Bft) O-SO 0.00 h 0 W/m 17.6 C 18.7 C 0.8 km/h (0 Bft)
11.09.2008 22:00 18.1 C 94 % 1008.4 hPa 0.0 l/m 0.8 km/h (0 Bft) O-SO 0.00 h 0 W/m 17.1 C 18.1 C 1.6 km/h (1 Bft)
11.09.2008 23:00 17.8 C 98 % 1007.8 hPa 0.0 l/m 0.2 km/h (0 Bft) SO 0.00 h 0 W/m 17.4 C 17.8 C 0.9 km/h (0 Bft)
12.09.2008 00:00 17.4 C 98 % 1006.9 hPa 0.0 l/m 0.0 km/h (0 Bft) N 0.00 h 0 W/m 17.1 C 17.4 C 0.1 km/h (0 Bft)
12.09.2008 01:00 17.0 C 98 % 1006.2 hPa 0.0 l/m 0.2 km/h (0 Bft) SO 0.00 h 0 W/m 16.6 C 17.0 C 0.9 km/h (0 Bft)
12.09.2008 02:00 16.5 C 99 % 1005.7 hPa 0.0 l/m 0.6 km/h (0 Bft) O-SO 0.00 h 0 W/m 16.3 C 16.5 C 1.4 km/h (1 Bft)
12.09.2008 03:00 16.5 C 100 % 1006.9 hPa 0.0 l/m 1.2 km/h (1 Bft) O-SO 0.00 h 0 W/m 16.4 C 16.5 C 2.7 km/h (1 Bft)
12.09.2008 04:00 17.8 C 94 % 1007.0 hPa 0.0 l/m 4.1 km/h (1 Bft) W 0.00 h 0 W/m 16.8 C 17.8 C 7.5 km/h (2 Bft)
12.09.2008 05:00 18.1 C 88 % 1007.8 hPa 0.2 l/m 4.5 km/h (1 Bft) W-NW 0.00 h 0 W/m 16.1 C 18.1 C 9.0 km/h (2 Bft)
12.09.2008 06:00 16.8 C 94 % 1008.2 hPa 0.4 l/m 3.1 km/h (1 Bft) W 0.00 h 0 W/m 15.8 C 16.8 C 5.6 km/h (1 Bft)
12.09.2008 07:00 16.4 C 97 % 1009.1 hPa 0.2 l/m 0.8 km/h (0 Bft) W-SW 0.00 h 12 W/m 15.9 C 16.4 C 2.7 km/h (1 Bft)
12.09.2008 08:00 16.6 C 94 % 1010.1 hPa 0.0 l/m 2.9 km/h (1 Bft) W-NW 0.00 h 54 W/m 15.7 C 16.6 C 6.0 km/h (2 Bft)
12.09.2008 09:00 17.0 C 91 % 1010.4 hPa 0.0 l/m 6.0 km/h (2 Bft) W 0.00 h 76 W/m 15.5 C 17.0 C 10.5 km/h (2 Bft)
12.09.2008 10:00 16.2 C 86 % 1011.5 hPa 0.0 l/m 13.1 km/h (3 Bft) W 0.00 h 114 W/m 13.9 C 16.2 C 21.7 km/h (4 Bft)
12.09.2008 11:00 16.0 C 82 % 1012.4 hPa 0.0 l/m 9.5 km/h (2 Bft) W 0.00 h 129 W/m 12.9 C 16.0 C 16.8 km/h (3 Bft)
12.09.2008 12:00 15.6 C 81 % 1012.9 hPa 0.0 l/m 12.6 km/h (3 Bft) W 0.00 h 122 W/m 12.2 C 15.6 C 20.6 km/h (4 Bft)
12.09.2008 13:00 15.5 C 80 % 1013.4 hPa 0.0 l/m 12.8 km/h (3 Bft) W-NW 0.00 h 128 W/m 12.1 C 15.5 C 20.1 km/h (4 Bft)
12.09.2008 14:00 15.4 C 80 % 1013.7 hPa 0.0 l/m 11.0 km/h (2 Bft) W 0.00 h 149 W/m 12.1 C 15.4 C 17.2 km/h (3 Bft)
12.09.2008 15:00 15.4 C 81 % 1013.8 hPa 0.0 l/m 10.3 km/h (2 Bft) W 0.00 h 122 W/m 12.2 C 15.4 C 16.5 km/h (3 Bft)
12.09.2008 16:00 15.0 C 83 % 1013.7 hPa 0.0 l/m 8.2 km/h (2 Bft) W 0.00 h 70 W/m 12.2 C 15.0 C 13.4 km/h (3 Bft)
12.09.2008 17:00 14.9 C 84 % 1013.8 hPa 0.0 l/m 5.1 km/h (1 Bft) W 0.00 h 63 W/m 12.3 C 14.9 C 8.7 km/h (2 Bft)
12.09.2008 18:00 14.7 C 86 % 1013.9 hPa 0.0 l/m 2.1 km/h (1 Bft) W 0.00 h 18 W/m 12.3 C 14.7 C 4.5 km/h (1 Bft)
12.09.2008 19:00 14.4 C 87 % 1014.1 hPa 0.0 l/m 2.0 km/h (1 Bft) W 0.00 h 12 W/m 12.2 C 14.4 C 3.9 km/h (1 Bft)
12.09.2008 20:00 14.2 C 88 % 1014.5 hPa 0.0 l/m 0.8 km/h (0 Bft) W 0.00 h 0 W/m 12.3 C 14.2 C 2.0 km/h (1 Bft)
12.09.2008 21:00 14.1 C 90 % 1014.9 hPa 0.0 l/m 0.5 km/h (0 Bft) W 0.00 h 0 W/m 12.4 C 14.1 C 1.5 km/h (1 Bft)
12.09.2008 22:00 13.9 C 93 % 1015.0 hPa 0.4 l/m 0.0 km/h (0 Bft) N 0.00 h 0 W/m 12.8 C 13.9 C 0.0 km/h (0 Bft)
12.09.2008 23:00 13.6 C 97 % 1014.4 hPa 0.0 l/m 0.2 km/h (0 Bft) W 0.00 h 0 W/m 13.2 C 13.6 C 0.8 km/h (0 Bft)
13.09.2008 00:00 13.5 C 98 % 1014.3 hPa 0.0 l/m 0.0 km/h (0 Bft) N 0.00 h 0 W/m 13.2 C 13.5 C 0.1 km/h (0 Bft)
13.09.2008 01:00 13.6 C 96 % 1014.2 hPa 0.0 l/m 0.0 km/h (0 Bft) N 0.00 h 0 W/m 13.0 C 13.6 C 0.1 km/h (0 Bft)
13.09.2008 02:00 13.5 C 97 % 1013.8 hPa 0.0 l/m 1.1 km/h (1 Bft) N-NW 0.00 h 0 W/m 13.1 C 13.5 C 2.7 km/h (1 Bft)
13.09.2008 03:00 13.3 C 98 % 1013.4 hPa 0.0 l/m 1.8 km/h (1 Bft) N-NW 0.00 h 0 W/m 13.0 C 13.3 C 3.5 km/h (1 Bft)
13.09.2008 04:00 13.2 C 98 % 1013.2 hPa 0.2 l/m 0.7 km/h (0 Bft) N-NW 0.00 h 0 W/m 12.9 C 13.2 C 1.9 km/h (1 Bft)
13.09.2008 05:00 13.0 C 98 % 1013.0 hPa 5.4 l/m 0.7 km/h (0 Bft) NW 0.00 h 0 W/m 12.7 C 13.0 C 1.9 km/h (1 Bft)
13.09.2008 06:00 12.6 C 100 % 1012.5 hPa 4.0 l/m 0.7 km/h (0 Bft) N 0.00 h 0 W/m 12.6 C 12.6 C 1.8 km/h (1 Bft)
13.09.2008 07:00 12.5 C 100 % 1012.5 hPa 3.4 l/m 0.1 km/h (0 Bft) N 0.00 h 5 W/m 12.5 C 12.5 C 0.6 km/h (0 Bft)
13.09.2008 08:00 12.5 C 100 % 1012.6 hPa 4.8 l/m 0.2 km/h (0 Bft) N-NO 0.00 h 8 W/m 12.5 C 12.5 C 1.0 km/h (0 Bft)
13.09.2008 09:00 12.7 C 100 % 1012.3 hPa 2.0 l/m 0.3 km/h (0 Bft) NW 0.00 h 28 W/m 12.7 C 12.7 C 1.0 km/h (0 Bft)
13.09.2008 10:00 12.9 C 100 % 1011.8 hPa 0.0 l/m 0.6 km/h (0 Bft) NW 0.00 h 57 W/m 12.9 C 12.9 C 1.9 km/h (1 Bft)
13.09.2008 11:00 12.9 C 100 % 1011.3 hPa 0.0 l/m 0.3 km/h (0 Bft) NW 0.00 h 56 W/m 12.9 C 12.9 C 1.1 km/h (1 Bft)
13.09.2008 12:00 12.8 C 100 % 1011.0 hPa 0.0 l/m 1.3 km/h (1 Bft) NW 0.00 h 49 W/m 12.8 C 12.8 C 3.1 km/h (1 Bft)
13.09.2008 13:00 12.7 C 100 % 1011.2 hPa 2.4 l/m 0.6 km/h (0 Bft) W 0.00 h 45 W/m 12.7 C 12.7 C 1.7 km/h (1 Bft)
13.09.2008 14:00 12.7 C 100 % 1011.3 hPa 2.8 l/m 0.7 km/h (0 Bft) S-SO 0.00 h 60 W/m 12.7 C 12.7 C 1.9 km/h (1 Bft)
13.09.2008 15:00 12.8 C 100 % 1010.8 hPa 2.6 l/m 0.6 km/h (0 Bft) N-NW 0.00 h 48 W/m 12.8 C 12.8 C 1.8 km/h (1 Bft)
13.09.2008 16:00 12.8 C 100 % 1010.5 hPa 3.8 l/m 0.1 km/h (0 Bft) N-NW 0.00 h 31 W/m 12.8 C 12.8 C 0.8 km/h (0 Bft)
13.09.2008 17:00 12.8 C 100 % 1010.3 hPa 1.2 l/m 0.1 km/h (0 Bft) N-NW 0.00 h 24 W/m 12.8 C 12.8 C 0.9 km/h (0 Bft)
13.09.2008 18:00 12.8 C 100 % 1010.5 hPa 1.6 l/m 0.1 km/h (0 Bft) N-NW 0.00 h 14 W/m 12.8 C 12.8 C 0.7 km/h (0 Bft)
13.09.2008 19:00 12.6 C 100 % 1010.6 hPa 3.4 l/m 1.0 km/h (0 Bft) N-NW 0.00 h 5 W/m 12.6 C 12.6 C 2.8 km/h (1 Bft)
13.09.2008 20:00 12.4 C 100 % 1011.4 hPa 4.0 l/m 1.5 km/h (1 Bft) W-NW 0.00 h 0 W/m 12.4 C 12.4 C 3.6 km/h (1 Bft)
13.09.2008 21:00 12.3 C 100 % 1012.2 hPa 2.8 l/m 4.9 km/h (1 Bft) N 0.00 h 0 W/m 12.2 C 12.3 C 9.3 km/h (2 Bft)
13.09.2008 22:00 11.4 C 99 % 1012.9 hPa 3.2 l/m 3.0 km/h (1 Bft) NO 0.00 h 0 W/m 11.2 C 11.4 C 6.6 km/h (2 Bft)
13.09.2008 23:00 11.2 C 99 % 1013.0 hPa 1.2 l/m 0.2 km/h (0 Bft) O 0.00 h 0 W/m 11.0 C 11.2 C 1.0 km/h (0 Bft)
14.09.2008 00:00 11.2 C 99 % 1013.1 hPa 0.4 l/m 0.0 km/h (0 Bft) N 0.00 h 0 W/m 11.0 C 11.2 C 0.3 km/h (0 Bft)
14.09.2008 01:00 11.1 C 99 % 1013.2 hPa 0.8 l/m 1.6 km/h (1 Bft) N-NO 0.00 h 0 W/m 10.9 C 11.1 C 3.6 km/h (1 Bft)
14.09.2008 02:00 10.3 C 97 % 1013.4 hPa 1.2 l/m 2.7 km/h (1 Bft) N-NO 0.00 h 0 W/m 9.9 C 10.3 C 6.2 km/h (2 Bft)
14.09.2008 03:00 9.7 C 96 % 1013.8 hPa 0.6 l/m 1.0 km/h (0 Bft) N-NO 0.00 h 0 W/m 9.2 C 9.7 C 3.1 km/h (1 Bft)
14.09.2008 04:00 9.3 C 95 % 1014.3 hPa 0.8 l/m 1.3 km/h (1 Bft) NO 0.00 h 0 W/m 8.6 C 9.3 C 3.1 km/h (1 Bft)
14.09.2008 05:00 9.2 C 95 % 1014.6 hPa 2.0 l/m 1.2 km/h (1 Bft) N 0.00 h 0 W/m 8.4 C 9.1 C 2.8 km/h (1 Bft)
14.09.2008 06:00 8.6 C 95 % 1015.1 hPa 2.2 l/m 2.5 km/h (1 Bft) N 0.00 h 0 W/m 7.9 C 8.5 C 4.8 km/h (1 Bft)
14.09.2008 07:00 8.3 C 95 % 1015.7 hPa 1.4 l/m 0.3 km/h (0 Bft) N 0.00 h 13 W/m 7.6 C 8.3 C 1.2 km/h (1 Bft)
14.09.2008 08:00 8.1 C 95 % 1016.3 hPa 0.4 l/m 0.7 km/h (0 Bft) N-NO 0.00 h 22 W/m 7.3 C 8.1 C 2.2 km/h (1 Bft)
14.09.2008 09:00 8.0 C 95 % 1017.0 hPa 0.0 l/m 0.5 km/h (0 Bft) N-NO 0.00 h 34 W/m 7.2 C 8.0 C 1.6 km/h (1 Bft)
14.09.2008 10:00 8.9 C 94 % 1017.4 hPa 0.0 l/m 2.1 km/h (1 Bft) NO 0.00 h 149 W/m 7.9 C 8.8 C 4.9 km/h (1 Bft)
14.09.2008 11:00 10.7 C 82 % 1017.4 hPa 0.0 l/m 3.4 km/h (1 Bft) O 0.50 h 445 W/m 7.8 C 10.7 C 7.2 km/h (2 Bft)
14.09.2008 12:00 12.4 C 73 % 1017.3 hPa 0.2 l/m 7.2 km/h (2 Bft) O-SO 0.75 h 640 W/m 7.6 C 12.4 C 12.7 km/h (3 Bft)
14.09.2008 13:00 12.6 C 71 % 1017.2 hPa 0.0 l/m 8.4 km/h (2 Bft) O-SO 0.48 h 425 W/m 7.6 C 12.6 C 13.2 km/h (3 Bft)
14.09.2008 14:00 12.2 C 72 % 1017.7 hPa 0.0 l/m 5.1 km/h (1 Bft) O-SO 0.00 h 174 W/m 7.3 C 12.2 C 9.1 km/h (2 Bft)
14.09.2008 15:00 12.1 C 72 % 1018.1 hPa 0.0 l/m 6.2 km/h (2 Bft) O-SO 0.00 h 107 W/m 7.2 C 12.1 C 9.3 km/h (2 Bft)
14.09.2008 16:00 11.9 C 75 % 1018.7 hPa 0.0 l/m 1.9 km/h (1 Bft) O-SO 0.00 h 40 W/m 7.5 C 11.9 C 3.7 km/h (1 Bft)
14.09.2008 17:00 11.6 C 80 % 1019.4 hPa 0.0 l/m 2.2 km/h (1 Bft) SO 0.00 h 18 W/m 8.1 C 11.6 C 3.4 km/h (1 Bft)
14.09.2008 18:00 11.1 C 79 % 1020.1 hPa 0.0 l/m 3.9 km/h (1 Bft) O-SO 0.00 h 14 W/m 7.6 C 11.1 C 6.1 km/h (2 Bft)
14.09.2008 19:00 10.7 C 79 % 1020.6 hPa 0.0 l/m 2.9 km/h (1 Bft) O-SO 0.00 h 7 W/m 7.2 C 10.7 C 5.1 km/h (1 Bft)
14.09.2008 20:00 10.2 C 83 % 1021.0 hPa 0.0 l/m 0.2 km/h (0 Bft) O-SO 0.00 h 0 W/m 7.4 C 10.2 C 1.0 km/h (0 Bft)
14.09.2008 21:00 10.0 C 87 % 1021.4 hPa 0.0 l/m 0.0 km/h (0 Bft) N 0.00 h 0 W/m 7.9 C 10.0 C 0.2 km/h (0 Bft)
14.09.2008 22:00 9.7 C 89 % 1021.0 hPa 0.0 l/m 0.3 km/h (0 Bft) O-SO 0.00 h 0 W/m 7.9 C 9.7 C 1.0 km/h (0 Bft)
14.09.2008 23:00 9.5 C 90 % 1020.4 hPa 0.0 l/m 0.3 km/h (0 Bft) O-SO 0.00 h 0 W/m 8.0 C 9.5 C 1.1 km/h (1 Bft)
Min-Datum _ 14.09.08 08.09.08 12.09.08 - 08.09.08 - - - 14.09.08 14.09.08 08.09.08
_ Min-Zeit 09:00 15:46 02:00 - 00:11 - - - 14:57 06:50 00:11
Minimum _ 7.8 C 46 % 1005.6 hPa - 0.0 km/h (0 Bft) - - - 6.7 C 7.5 C 0.0 km/h (0 Bft)
Max-Datum _ 09.09.08 08.09.08 14.09.08 13.09.08 12.09.08 - 08.09.08 14.09.08 11.09.08 09.09.08 12.09.08
_ Max-Zeit 16:38 03:13 21:00 05:03 10:56 - 10:07 12:32 16:02 16:38 10:56
Maximum _ 25.0 C 100 % 1021.4 hPa 5.4 l/m 24.3 km/h
W (4 Bft)
- 0.02 h 930 W/m 21.1 C 25.0 C 41.7 km/h
W (6 Bft)
Durchschnitt _ 15.3 C 88 % 1015.0 hPa #62.4 l/m 1.6 km/h (1 Bft) O-SO #25:42 h 211 W/m 13.2 C 15.3 C 3.3 km/h (1 Bft)
© Kaiko 2008